Abbyville, KS (67510)

5:00 PM CST on December 27, 2014 (GMT -0600)
KKSHUTCH9 | Change Station
CLOSE
Current Station
Personal Weather Station
Location: Hutchinson, KS
Elevation: 1549 ft
Nearby Weather Stations

Elev 1549 ft 38.08 °N, 97.92 °W | Updated 1 second ago

Clear
Clear
32.2 °F
Feels Like 26 °F
N
6.9
Wind Variable Wind from NW
Gusts 7.6 mph

Today
High -- | Low -- °F
--% Chance of Precip.
Yesterday
High -- | Low -- °F
Precip. -- in
7:47 AM 5:20 PM
Waxing Crescent, 41% visible
Pressure 30.30 in
Visibility 10.0 miles
Clouds Clear
Windchill 26 °F
Dew Point 16 °F
Humidity 51%
Rainfall 0.00 in
Snow Depth Not available.
UV 0 out of 12
Pollen .10 out of 12
Air Quality Not available.
Flu Activity Not available.
METAR KHUT 272252Z 30008KT 10SM CLR 00/M09 A3027 RMK AO2 SLP261 T00001089

More Conditions Fewer Conditions

Pressure 30.30 in
Visibility 10.0 miles
Clouds Clear
Windchill 26 °F
Dew Point 16 °F
Humidity 51%
Rainfall 0.00 in
Snow Depth Not available.
UV 0 out of 12
Pollen .10 out of 12
Air Quality Not available.
Flu Activity Not available.
METAR KHUT 272252Z 30008KT 10SM CLR 00/M09 A3027 RMK AO2 SLP261 T00001089

More Conditions Fewer Conditions

10-Day Weather Forecast

Almanac

Astronomy

Dec. 27, 2014 Rise Set
Actual Time
Civil Twilight
Nautical Twilight
Astronomical Twilight
Moon
Length of Visible Light
Length of Day
Tomorrow will be .
, % of the Moon is Illuminated

Today's Extremes

State Highs State Lows

Community

WunderPhotos

Upload Photos

1,781,100 photos uploaded!

WunderBlogs® & News

Nearby

Air Quality

  Air Quality AQ Index Pollutant
Not available.

Snow Depth

Station Depth Elevation

Earthquake Activity

City Distance Mag. Time & Date
Minimum magnitude displayed is 2.5.

Coastal Water Temperatures

Place Temperature

Nearby Weather Stations